Time;durP1;ratioP1;P1;durP2;ratioP2;P2;SDS_P1;SDS_P2;PMS_P1;PMS_P2;Temp;Humidity;BMP_temperature;BMP_pressure;BME280_temperature;BME280_humidity;BME280_pressure;Samples;Min_cycle;Max_cycle;Signal;HPM_P1;HPM_P2
2020/12/05 00:00:44;;;;;;;54.03;32.03;;;;;;;;;;5000062;28;20457;-88
2020/12/05 00:03:10;;;;;;;58.67;31.13;;;;;;;;;;5032974;28;20049;-87
2020/12/05 00:05:36;;;;;;;56.50;30.45;;;;;;;;;;5032482;28;20657;-88
2020/12/05 00:08:03;;;;;;;52.72;29.40;;;;;;;;;;5015547;28;20045;-88
2020/12/05 00:10:29;;;;;;;56.85;29.20;;;;;;;;;;5015474;28;20532;-88
2020/12/05 00:12:55;;;;;;;59.33;32.45;;;;;;;;;;5016395;28;20136;-88
2020/12/05 00:15:21;;;;;;;54.13;29.60;;;;;;;;;;5033068;28;20649;-87
2020/12/05 00:17:47;;;;;;;54.28;28.67;;;;;;;;;;5015921;28;20049;-87
2020/12/05 00:20:13;;;;;;;55.80;30.67;;;;;;;;;;5016268;28;20057;-86
2020/12/05 00:22:39;;;;;;;54.97;30.13;;;;;;;;;;5016266;28;20049;-86
2020/12/05 00:25:06;;;;;;;69.95;36.30;;;;;;;;;;5015634;28;20712;-87
2020/12/05 00:27:32;;;;;;;62.20;33.72;;;;;;;;;;5033528;28;20072;-87
2020/12/05 00:29:59;;;;;;;61.70;32.88;;;;;;;;;;5014737;28;20049;-87
2020/12/05 00:32:27;;;;;;;58.25;30.80;;;;;;;;;;5015159;28;20054;-87
2020/12/05 00:34:54;;;;;;;54.72;30.65;;;;;;;;;;5033315;28;20132;-87
2020/12/05 00:37:20;;;;;;;57.53;31.17;;;;;;;;;;5015464;28;20088;-87
2020/12/05 00:39:45;;;;;;;55.20;29.10;;;;;;;;;;5033739;28;20536;-87
2020/12/05 00:42:12;;;;;;;64.10;33.05;;;;;;;;;;5032780;28;20679;-86
2020/12/05 00:44:38;;;;;;;62.22;31.95;;;;;;;;;;5033266;28;20054;-87
2020/12/05 00:47:04;;;;;;;60.80;32.63;;;;;;;;;;5033658;28;20127;-87
2020/12/05 00:49:30;;;;;;;60.53;34.78;;;;;;;;;;5032730;28;20057;-87
2020/12/05 00:51:56;;;;;;;73.60;34.67;;;;;;;;;;5015987;28;20049;-87
2020/12/05 00:54:22;;;;;;;68.85;37.60;;;;;;;;;;5015718;28;20046;-87
2020/12/05 00:56:49;;;;;;;62.72;31.83;;;;;;;;;;5016110;28;20057;-87
2020/12/05 00:59:16;;;;;;;66.05;33.85;;;;;;;;;;5015505;28;20049;-87
2020/12/05 01:01:42;;;;;;;64.40;33.28;;;;;;;;;;5015468;28;20049;-87
2020/12/05 01:04:08;;;;;;;59.35;31.42;;;;;;;;;;5032865;28;20638;-87
2020/12/05 01:06:34;;;;;;;71.60;34.38;;;;;;;;;;5032562;28;20811;-86
2020/12/05 01:09:00;;;;;;;69.75;34.55;;;;;;;;;;4998721;28;20053;-87
2020/12/05 01:11:26;;;;;;;69.60;34.20;;;;;;;;;;5032566;28;20118;-87
2020/12/05 01:13:53;;;;;;;65.20;35.10;;;;;;;;;;5015475;28;20107;-87
2020/12/05 01:16:20;;;;;;;70.47;35.80;;;;;;;;;;5032767;28;20141;-86
2020/12/05 01:18:47;;;;;;;64.15;35.15;;;;;;;;;;5015224;28;20075;-87
2020/12/05 01:21:14;;;;;;;62.55;34.83;;;;;;;;;;5015518;28;20057;-86
2020/12/05 01:23:41;;;;;;;56.97;31.05;;;;;;;;;;5015106;28;20050;-88
2020/12/05 01:26:07;;;;;;;68.53;35.63;;;;;;;;;;5032804;28;20076;-87
2020/12/05 01:28:34;;;;;;;64.47;33.53;;;;;;;;;;5014905;28;20149;-87
2020/12/05 01:31:00;;;;;;;69.03;33.42;;;;;;;;;;5032112;28;20056;-87
2020/12/05 01:33:27;;;;;;;68.40;34.75;;;;;;;;;;5014648;28;20107;-87
2020/12/05 01:35:53;;;;;;;64.43;32.70;;;;;;;;;;5032515;28;20652;-88
2020/12/05 01:38:20;;;;;;;60.33;32.13;;;;;;;;;;4998534;28;20123;-87
2020/12/05 01:40:50;;;;;;;64.50;33.80;;;;;;;;;;5014858;28;20760;-87
2020/12/05 01:43:17;;;;;;;65.93;33.92;;;;;;;;;;5032113;28;20053;-87
2020/12/05 01:45:43;;;;;;;70.53;34.35;;;;;;;;;;5014290;28;20060;-87
2020/12/05 01:48:09;;;;;;;59.67;32.10;;;;;;;;;;5032310;28;20080;-87
2020/12/05 01:50:36;;;;;;;64.28;32.00;;;;;;;;;;5014302;28;20045;-87
2020/12/05 01:53:02;;;;;;;64.53;32.03;;;;;;;;;;4995045;28;20045;-87
2020/12/05 01:55:28;;;;;;;63.85;32.55;;;;;;;;;;4979271;28;20180;-87
2020/12/05 01:57:56;;;;;;;67.45;34.15;;;;;;;;;;5012856;28;20053;-87
2020/12/05 02:00:23;;;;;;;66.18;33.45;;;;;;;;;;5012430;28;20046;-87
2020/12/05 02:02:49;;;;;;;59.70;32.08;;;;;;;;;;5027317;28;20092;-87
2020/12/05 02:05:21;;;;;;;60.55;29.80;;;;;;;;;;5014143;28;20053;-87
2020/12/05 02:07:52;;;;;;;58.45;31.08;;;;;;;;;;5014790;28;20056;-87
2020/12/05 02:10:26;;;;;;;65.07;33.00;;;;;;;;;;5032279;28;20058;-87
2020/12/05 02:12:56;;;;;;;59.17;32.28;;;;;;;;;;5032532;28;20057;-87
2020/12/05 02:15:24;;;;;;;62.40;32.88;;;;;;;;;;5014698;28;20108;-87
2020/12/05 02:17:54;;;;;;;65.75;32.55;;;;;;;;;;5014857;28;20059;-87
2020/12/05 02:20:20;;;;;;;64.15;31.67;;;;;;;;;;5032611;28;20065;-87
2020/12/05 02:22:46;;;;;;;69.43;34.58;;;;;;;;;;5014925;28;20049;-87
2020/12/05 02:25:14;;;;;;;64.13;31.98;;;;;;;;;;4998618;28;20053;-88
2020/12/05 02:27:42;;;;;;;71.25;34.15;;;;;;;;;;5014477;28;20524;-87
2020/12/05 02:30:09;;;;;;;67.18;34.03;;;;;;;;;;4998509;28;20136;-87
2020/12/05 02:32:35;;;;;;;71.00;33.55;;;;;;;;;;5032094;28;20057;-87
2020/12/05 02:35:01;;;;;;;64.72;33.35;;;;;;;;;;5032654;28;20496;-87
2020/12/05 02:37:28;;;;;;;65.25;32.42;;;;;;;;;;5015104;28;20060;-86
2020/12/05 02:39:55;;;;;;;64.07;32.50;;;;;;;;;;5031969;28;20046;-87
2020/12/05 02:42:22;;;;;;;65.22;32.22;;;;;;;;;;5032339;28;20046;-87
2020/12/05 02:44:49;;;;;;;67.47;34.03;;;;;;;;;;5031639;28;20046;-87
2020/12/05 02:47:19;;;;;;;67.10;32.80;;;;;;;;;;5032025;28;20057;-87
2020/12/05 02:49:45;;;;;;;69.80;33.55;;;;;;;;;;5031732;28;20490;-86
2020/12/05 02:52:12;;;;;;;58.88;31.35;;;;;;;;;;5014432;28;20087;-87
2020/12/05 02:54:38;;;;;;;71.60;33.33;;;;;;;;;;5034678;28;20045;-88
2020/12/05 02:57:04;;;;;;;62.75;33.05;;;;;;;;;;5017772;28;20053;-88
2020/12/05 02:59:32;;;;;;;67.30;32.95;;;;;;;;;;5001264;28;20057;-87
2020/12/05 03:01:58;;;;;;;67.35;34.40;;;;;;;;;;5036040;28;20050;-87
2020/12/05 03:04:25;;;;;;;71.15;34.35;;;;;;;;;;5001961;28;20053;-88
2020/12/05 03:06:51;;;;;;;66.15;34.08;;;;;;;;;;5001583;28;20064;-88
2020/12/05 03:09:17;;;;;;;66.40;32.53;;;;;;;;;;5017721;28;20449;-87
2020/12/05 03:11:43;;;;;;;65.93;33.03;;;;;;;;;;5017453;28;20081;-88
2020/12/05 03:14:10;;;;;;;64.95;33.00;;;;;;;;;;5035378;28;20053;-87
2020/12/05 03:16:37;;;;;;;70.90;34.05;;;;;;;;;;5001711;28;20053;-87
2020/12/05 03:19:03;;;;;;;65.25;33.20;;;;;;;;;;5001508;28;20061;-88
2020/12/05 03:21:29;;;;;;;66.63;32.63;;;;;;;;;;5018235;28;20060;-87
2020/12/05 03:23:55;;;;;;;63.30;30.75;;;;;;;;;;5017864;28;20064;-87
2020/12/05 03:26:21;;;;;;;62.08;29.15;;;;;;;;;;5035295;28;20124;-87
2020/12/05 03:28:47;;;;;;;55.40;29.42;;;;;;;;;;5035022;28;20132;-87
2020/12/05 03:31:23;;;;;;;65.38;32.80;;;;;;;;;;5017361;28;20060;-87
2020/12/05 03:33:50;;;;;;;57.80;29.90;;;;;;;;;;5035289;28;20347;-88
2020/12/05 03:36:17;;;;;;;56.33;29.80;;;;;;;;;;5017107;28;20053;-88
2020/12/05 03:38:46;;;;;;;60.67;30.98;;;;;;;;;;5018927;28;20108;-88
2020/12/05 03:41:13;;;;;;;56.70;29.70;;;;;;;;;;5019529;28;20076;-88
2020/12/05 03:43:39;;;;;;;61.03;31.48;;;;;;;;;;5034431;28;20087;-88
2020/12/05 03:46:05;;;;;;;67.47;32.35;;;;;;;;;;5016752;28;20517;-88
2020/12/05 03:48:31;;;;;;;57.20;29.33;;;;;;;;;;5016612;28;20049;-87
2020/12/05 03:50:58;;;;;;;56.90;31.05;;;;;;;;;;5016895;28;20417;-88
2020/12/05 03:53:24;;;;;;;52.25;28.38;;;;;;;;;;5000683;28;20180;-87
2020/12/05 03:55:52;;;;;;;57.60;30.08;;;;;;;;;;5016730;28;20053;-88
2020/12/05 03:58:18;;;;;;;54.63;29.52;;;;;;;;;;5000858;28;20057;-87
2020/12/05 04:00:44;;;;;;;50.65;29.13;;;;;;;;;;5034506;28;20115;-87
2020/12/05 04:03:10;;;;;;;53.03;28.00;;;;;;;;;;5034115;28;20101;-87
2020/12/05 04:05:36;;;;;;;55.22;29.38;;;;;;;;;;5015358;28;20678;-87
2020/12/05 04:08:03;;;;;;;57.55;29.50;;;;;;;;;;5033951;28;20079;-88
2020/12/05 04:10:36;;;;;;;45.78;27.05;;;;;;;;;;5016682;28;20061;-87
2020/12/05 04:13:02;;;;;;;49.67;26.98;;;;;;;;;;5001287;28;20111;-87
2020/12/05 04:15:28;;;;;;;53.50;27.63;;;;;;;;;;5016170;28;20058;-87
2020/12/05 04:17:55;;;;;;;49.95;27.17;;;;;;;;;;4983946;28;20052;-87
2020/12/05 04:20:20;;;;;;;50.03;27.92;;;;;;;;;;5033375;28;20053;-87
2020/12/05 04:22:46;;;;;;;51.60;27.13;;;;;;;;;;5034246;28;20049;-87
2020/12/05 04:25:13;;;;;;;46.38;25.33;;;;;;;;;;5034414;28;20064;-87
2020/12/05 04:27:39;;;;;;;43.00;23.73;;;;;;;;;;5016168;28;20072;-87
2020/12/05 04:30:06;;;;;;;47.70;25.17;;;;;;;;;;5016572;28;20061;-87
2020/12/05 04:32:32;;;;;;;42.67;24.35;;;;;;;;;;5033654;28;20064;-87
2020/12/05 04:34:58;;;;;;;45.33;25.65;;;;;;;;;;5017074;28;20041;-87
2020/12/05 04:37:24;;;;;;;46.15;23.92;;;;;;;;;;5034020;28;20128;-87
2020/12/05 04:39:50;;;;;;;47.15;26.17;;;;;;;;;;5016629;28;20053;-87
2020/12/05 04:42:17;;;;;;;46.13;25.35;;;;;;;;;;5034115;28;20085;-87
2020/12/05 04:44:44;;;;;;;50.97;26.48;;;;;;;;;;5016026;28;20056;-87
2020/12/05 04:47:11;;;;;;;45.78;25.17;;;;;;;;;;5033983;28;20045;-88
2020/12/05 04:49:37;;;;;;;45.28;25.23;;;;;;;;;;5034146;28;20041;-87
2020/12/05 04:52:17;;;;;;;45.25;26.20;;;;;;;;;;5015402;28;20691;-87
2020/12/05 04:54:45;;;;;;;45.20;25.85;;;;;;;;;;5033397;28;20045;-87
2020/12/05 04:57:13;;;;;;;45.05;27.52;;;;;;;;;;5016111;28;20099;-87
2020/12/05 04:59:40;;;;;;;47.45;26.85;;;;;;;;;;5032904;28;20065;-86
2020/12/05 05:02:10;;;;;;;45.85;26.83;;;;;;;;;;4999279;28;20041;-86
2020/12/05 05:04:36;;;;;;;48.10;24.70;;;;;;;;;;5015469;28;20088;-86
2020/12/05 05:07:05;;;;;;;40.65;25.27;;;;;;;;;;5016170;28;20053;-87
2020/12/05 05:09:31;;;;;;;45.53;24.95;;;;;;;;;;5005153;28;20054;-87
2020/12/05 05:11:57;;;;;;;44.70;24.88;;;;;;;;;;5013300;28;20791;-87
2020/12/05 05:14:31;;;;;;;42.65;24.88;;;;;;;;;;4996007;28;20160;-87
2020/12/05 05:17:04;;;;;;;45.25;26.40;;;;;;;;;;4995206;28;20046;-87
2020/12/05 05:19:30;;;;;;;42.25;25.52;;;;;;;;;;5013529;28;20050;-87
2020/12/05 05:21:56;;;;;;;46.58;26.13;;;;;;;;;;4995871;28;20744;-87
2020/12/05 05:24:23;;;;;;;46.60;26.25;;;;;;;;;;5012964;28;20054;-86
2020/12/05 05:26:58;;;;;;;43.22;25.17;;;;;;;;;;5013208;28;20056;-86
2020/12/05 05:29:26;;;;;;;37.13;22.58;;;;;;;;;;5023237;28;20050;-87
2020/12/05 05:31:55;;;;;;;45.75;25.00;;;;;;;;;;5033138;28;20046;-86
2020/12/05 05:34:23;;;;;;;37.00;23.73;;;;;;;;;;5032653;28;20136;-87
2020/12/05 05:36:50;;;;;;;42.75;23.85;;;;;;;;;;5033225;28;20046;-86
2020/12/05 05:39:18;;;;;;;40.28;22.80;;;;;;;;;;5033133;28;20049;-87
2020/12/05 05:41:49;;;;;;;38.50;23.10;;;;;;;;;;5015276;28;20670;-87
2020/12/05 05:44:16;;;;;;;37.40;23.05;;;;;;;;;;4998408;28;20053;-87
2020/12/05 05:46:43;;;;;;;40.42;24.00;;;;;;;;;;5032569;28;20050;-87
2020/12/05 05:49:10;;;;;;;38.80;22.83;;;;;;;;;;5014731;28;20048;-87
2020/12/05 05:51:42;;;;;;;40.80;22.88;;;;;;;;;;5032325;28;20077;-87
2020/12/05 05:54:12;;;;;;;41.00;22.95;;;;;;;;;;5014830;28;20049;-87
2020/12/05 05:56:38;;;;;;;39.03;23.30;;;;;;;;;;5013209;28;20100;-87
2020/12/05 05:59:05;;;;;;;43.97;25.85;;;;;;;;;;5014216;28;20057;-87
2020/12/05 06:01:32;;;;;;;41.67;27.30;;;;;;;;;;5032819;28;20572;-87
2020/12/05 06:04:03;;;;;;;39.80;23.10;;;;;;;;;;5014727;28;20076;-86
2020/12/05 06:06:29;;;;;;;37.72;23.08;;;;;;;;;;5032509;28;20057;-87
2020/12/05 06:08:57;;;;;;;39.35;23.15;;;;;;;;;;5032979;28;20490;-87
2020/12/05 06:11:24;;;;;;;35.78;21.52;;;;;;;;;;4999771;28;20046;-87
2020/12/05 06:13:50;;;;;;;37.05;21.73;;;;;;;;;;4998903;28;20053;-87
2020/12/05 06:16:18;;;;;;;36.13;20.95;;;;;;;;;;5014573;28;20052;-86
2020/12/05 06:18:44;;;;;;;37.72;22.40;;;;;;;;;;5015424;28;20052;-87
2020/12/05 06:21:10;;;;;;;34.67;21.58;;;;;;;;;;4999150;28;20093;-87
2020/12/05 06:23:40;;;;;;;40.75;24.23;;;;;;;;;;5014506;28;20061;-87
2020/12/05 06:26:09;;;;;;;37.13;22.55;;;;;;;;;;5032359;28;20045;-87
2020/12/05 06:28:38;;;;;;;36.55;22.30;;;;;;;;;;5033833;28;20409;-87
2020/12/05 06:31:04;;;;;;;36.05;22.30;;;;;;;;;;5036242;28;20381;-86
2020/12/05 06:33:37;;;;;;;36.63;21.95;;;;;;;;;;5035660;28;20077;-86
2020/12/05 06:36:38;;;;;;;42.30;22.80;;;;;;;;;;5018212;28;20573;-87
2020/12/05 06:39:15;;;;;;;39.88;23.85;;;;;;;;;;5035887;28;20501;-87
2020/12/05 06:41:43;;;;;;;38.70;23.17;;;;;;;;;;5035656;28;20045;-87
2020/12/05 06:44:12;;;;;;;36.28;21.63;;;;;;;;;;5035101;28;20057;-87
2020/12/05 06:46:51;;;;;;;35.45;21.65;;;;;;;;;;5035366;28;20045;-86
2020/12/05 06:49:46;;;;;;;39.33;23.30;;;;;;;;;;5033193;28;20275;-86
2020/12/05 06:52:36;;;;;;;36.20;21.60;;;;;;;;;;5035538;28;20049;-87
2020/12/05 06:55:05;;;;;;;37.72;21.90;;;;;;;;;;5036220;28;20045;-87
2020/12/05 06:57:34;;;;;;;32.58;20.42;;;;;;;;;;5036302;28;20046;-87
2020/12/05 07:00:31;;;;;;;35.63;22.23;;;;;;;;;;5035440;28;20049;-87
2020/12/05 07:02:59;;;;;;;31.20;19.88;;;;;;;;;;5035743;28;20056;-86
2020/12/05 07:05:43;;;;;;;32.25;20.80;;;;;;;;;;5035640;28;20049;-87
2020/12/05 07:08:20;;;;;;;30.40;19.23;;;;;;;;;;5018341;28;20049;-86
2020/12/05 07:10:49;;;;;;;54.10;31.77;;;;;;;;;;5015905;28;20540;-87
2020/12/05 07:13:18;;;;;;;54.40;32.85;;;;;;;;;;5016817;28;20133;-87
2020/12/05 07:15:44;;;;;;;52.42;32.95;;;;;;;;;;5035598;28;20042;-87
2020/12/05 07:18:11;;;;;;;62.17;39.63;;;;;;;;;;5035227;28;20041;-86
2020/12/05 07:20:37;;;;;;;63.15;39.67;;;;;;;;;;5017706;28;20048;-86
2020/12/05 07:23:03;;;;;;;56.05;35.80;;;;;;;;;;5017628;28;20045;-86
2020/12/05 07:25:29;;;;;;;55.95;36.03;;;;;;;;;;5034707;28;20057;-87
2020/12/05 07:27:55;;;;;;;46.28;29.67;;;;;;;;;;5035025;28;20056;-86
2020/12/05 07:30:22;;;;;;;41.25;24.17;;;;;;;;;;5034513;28;20512;-86
2020/12/05 07:32:50;;;;;;;37.55;23.42;;;;;;;;;;5034385;28;20053;-86
2020/12/05 07:35:16;;;;;;;36.10;21.23;;;;;;;;;;5035054;28;20058;-86
2020/12/05 07:37:42;;;;;;;27.58;18.10;;;;;;;;;;5016888;28;20152;-86
2020/12/05 07:40:08;;;;;;;26.92;19.00;;;;;;;;;;5017032;28;20152;-87
2020/12/05 07:42:35;;;;;;;36.25;21.63;;;;;;;;;;5000946;28;20049;-86
2020/12/05 07:45:05;;;;;;;69.32;41.10;;;;;;;;;;5017387;28;20053;-86
2020/12/05 07:47:32;;;;;;;60.58;39.40;;;;;;;;;;5034955;28;20052;-86
2020/12/05 07:50:06;;;;;;;60.88;35.38;;;;;;;;;;5017046;28;20050;-87
2020/12/05 07:52:33;;;;;;;59.67;35.15;;;;;;;;;;5016948;28;20045;-87
2020/12/05 07:55:01;;;;;;;57.97;36.40;;;;;;;;;;5017348;28;20116;-86
2020/12/05 07:57:28;;;;;;;54.40;35.17;;;;;;;;;;5017367;28;20486;-86
2020/12/05 08:00:05;;;;;;;60.67;35.30;;;;;;;;;;4996885;28;20061;-86
2020/12/05 08:02:46;;;;;;;54.95;34.47;;;;;;;;;;5014960;28;20086;-86
2020/12/05 08:05:22;;;;;;;59.25;35.33;;;;;;;;;;5033474;28;20477;-87
2020/12/05 08:07:55;;;;;;;;;;;;;;;;;;5036048;28;20050;-86
2020/12/05 08:10:22;;;;;;;37.67;23.55;;;;;;;;;;5017385;28;19921;-85
2020/12/05 08:13:14;;;;;;;38.58;23.67;;;;;;;;;;5037091;28;20053;-86
2020/12/05 08:15:40;;;;;;;43.45;24.63;;;;;;;;;;5035204;28;20053;-85
2020/12/05 08:18:07;;;;;;;47.47;24.63;;;;;;;;;;5016416;28;20057;-85
2020/12/05 08:20:34;;;;;;;28.23;18.67;;;;;;;;;;5029519;28;20672;-86
2020/12/05 08:23:00;;;;;;;32.65;21.30;;;;;;;;;;5015881;28;20057;-86
2020/12/05 08:25:27;;;;;;;31.20;20.90;;;;;;;;;;5033556;28;20060;-86
2020/12/05 08:27:53;;;;;;;29.75;18.67;;;;;;;;;;5033344;28;20053;-86
2020/12/05 08:30:19;;;;;;;26.95;17.67;;;;;;;;;;5015864;28;20069;-86
2020/12/05 08:32:46;;;;;;;29.80;19.17;;;;;;;;;;5033662;28;20053;-86
2020/12/05 08:35:14;;;;;;;27.90;17.48;;;;;;;;;;5033559;28;20056;-87
2020/12/05 08:37:42;;;;;;;25.67;16.13;;;;;;;;;;5033168;28;20123;-86
2020/12/05 08:40:09;;;;;;;25.25;18.08;;;;;;;;;;5012214;28;20061;-86
2020/12/05 08:42:35;;;;;;;28.50;19.38;;;;;;;;;;4963808;28;20107;-87
2020/12/05 08:45:01;;;;;;;32.13;20.40;;;;;;;;;;5012981;28;20046;-86
2020/12/05 08:47:27;;;;;;;25.85;17.70;;;;;;;;;;5013175;28;20053;-86
2020/12/05 08:49:53;;;;;;;24.75;17.58;;;;;;;;;;4995959;28;20058;-86
2020/12/05 08:52:24;;;;;;;26.50;17.08;;;;;;;;;;5020841;28;20115;-84
2020/12/05 08:54:52;;;;;;;24.27;16.75;;;;;;;;;;4997655;28;20068;-86
2020/12/05 08:57:19;;;;;;;26.27;17.35;;;;;;;;;;5043826;28;20064;-86
2020/12/05 08:59:45;;;;;;;23.45;17.40;;;;;;;;;;5036663;28;20056;-86
2020/12/05 09:02:13;;;;;;;23.23;14.85;;;;;;;;;;5041072;28;20047;-86
2020/12/05 09:04:39;;;;;;;25.25;16.23;;;;;;;;;;5042192;28;20049;-87
2020/12/05 09:07:10;;;;;;;23.45;15.50;;;;;;;;;;5040156;28;20049;-86
2020/12/05 09:09:37;;;;;;;23.20;14.50;;;;;;;;;;5020216;28;20042;-86
2020/12/05 09:12:05;;;;;;;23.67;15.65;;;;;;;;;;5024121;28;20570;-86
2020/12/05 09:14:31;;;;;;;23.20;14.68;;;;;;;;;;5042595;28;20048;-87
2020/12/05 09:16:57;;;;;;;23.50;15.85;;;;;;;;;;5032357;28;20053;-86
2020/12/05 09:19:24;;;;;;;20.13;14.63;;;;;;;;;;5015883;28;20054;-87
2020/12/05 09:21:50;;;;;;;22.70;16.02;;;;;;;;;;5033545;28;20051;-87
2020/12/05 09:24:57;;;;;;;23.73;16.88;;;;;;;;;;5037276;28;20057;-87
2020/12/05 09:27:35;;;;;;;23.63;16.10;;;;;;;;;;5035693;28;20053;-87
2020/12/05 09:30:01;;;;;;;21.08;14.73;;;;;;;;;;4999054;28;20045;-88
2020/12/05 09:32:36;;;;;;;26.95;19.50;;;;;;;;;;5014887;28;20613;-86
2020/12/05 09:35:02;;;;;;;45.38;26.67;;;;;;;;;;4998884;28;20052;-87
2020/12/05 09:37:28;;;;;;;41.05;25.63;;;;;;;;;;5014550;28;20505;-87
2020/12/05 09:39:54;;;;;;;35.35;24.30;;;;;;;;;;5014390;28;20052;-87
2020/12/05 09:42:22;;;;;;;35.42;25.85;;;;;;;;;;5015145;28;20513;-87
2020/12/05 09:44:49;;;;;;;34.67;25.50;;;;;;;;;;5032384;28;20045;-87
2020/12/05 09:47:15;;;;;;;34.17;21.92;;;;;;;;;;4998522;28;20064;-87
2020/12/05 09:49:41;;;;;;;33.05;21.13;;;;;;;;;;5032598;28;20408;-87
2020/12/05 09:52:07;;;;;;;25.58;17.33;;;;;;;;;;5014368;28;20041;-88
2020/12/05 09:54:36;;;;;;;23.42;16.88;;;;;;;;;;5014810;28;20061;-88
2020/12/05 09:57:02;;;;;;;24.65;17.30;;;;;;;;;;5015308;28;20405;-87
2020/12/05 09:59:29;;;;;;;22.13;15.57;;;;;;;;;;5032091;28;20068;-90
2020/12/05 10:01:56;;;;;;;21.67;15.98;;;;;;;;;;5013846;28;20057;-86
2020/12/05 10:04:22;;;;;;;23.27;16.25;;;;;;;;;;5020064;28;20832;-87
2020/12/05 10:06:48;;;;;;;23.83;16.90;;;;;;;;;;5018094;28;20104;-88
2020/12/05 10:09:14;;;;;;;21.45;15.82;;;;;;;;;;5018156;28;20046;-88
2020/12/05 10:11:40;;;;;;;20.75;14.98;;;;;;;;;;5018361;28;20081;-88
2020/12/05 10:14:06;;;;;;;22.55;15.75;;;;;;;;;;5017946;28;20097;-88
2020/12/05 10:16:32;;;;;;;20.88;14.40;;;;;;;;;;5018475;28;20057;-91
2020/12/05 10:18:59;;;;;;;17.08;13.32;;;;;;;;;;5017988;28;20053;-87
2020/12/05 10:21:26;;;;;;;20.67;14.85;;;;;;;;;;5003500;28;20075;-88
2020/12/05 10:23:51;;;;;;;21.02;14.18;;;;;;;;;;5018694;28;20045;-88
2020/12/05 10:26:17;;;;;;;24.40;17.80;;;;;;;;;;5017153;28;20049;-88
2020/12/05 10:28:44;;;;;;;23.60;16.73;;;;;;;;;;5034734;28;20108;-88
2020/12/05 10:31:10;;;;;;;25.00;16.55;;;;;;;;;;5002517;28;20103;-87
2020/12/05 10:33:36;;;;;;;22.13;15.63;;;;;;;;;;4998400;28;20042;-88
2020/12/05 10:36:03;;;;;;;20.45;14.55;;;;;;;;;;5028402;28;20045;-87
2020/12/05 10:38:29;;;;;;;21.27;14.93;;;;;;;;;;5027956;28;20069;-87
2020/12/05 10:40:56;;;;;;;24.55;16.90;;;;;;;;;;5030760;28;20046;-87
2020/12/05 10:43:22;;;;;;;28.13;18.77;;;;;;;;;;5053190;28;20048;-85
2020/12/05 10:45:48;;;;;;;26.23;18.08;;;;;;;;;;5050652;28;20050;-85
2020/12/05 10:48:14;;;;;;;29.17;19.65;;;;;;;;;;5052695;28;20406;-86
2020/12/05 10:50:40;;;;;;;27.08;18.20;;;;;;;;;;5051858;28;20057;-86
2020/12/05 10:53:07;;;;;;;24.90;17.52;;;;;;;;;;5049386;28;20053;-85
2020/12/05 10:55:33;;;;;;;27.58;18.58;;;;;;;;;;5034039;28;20072;-86
2020/12/05 10:57:59;;;;;;;25.42;17.27;;;;;;;;;;5053032;28;20041;-86
2020/12/05 11:00:25;;;;;;;25.17;17.42;;;;;;;;;;5046936;28;20072;-85
2020/12/05 11:02:51;;;;;;;25.00;17.83;;;;;;;;;;5052457;28;20504;-85
2020/12/05 11:05:17;;;;;;;28.58;19.67;;;;;;;;;;5040604;28;20564;-86
2020/12/05 11:07:43;;;;;;;30.70;20.77;;;;;;;;;;5040777;28;20049;-88
2020/12/05 11:10:10;;;;;;;25.00;19.52;;;;;;;;;;5037718;28;20048;-85
2020/12/05 11:12:36;;;;;;;25.38;18.23;;;;;;;;;;5018093;28;20128;-86
2020/12/05 11:15:03;;;;;;;31.77;19.95;;;;;;;;;;5039251;28;20104;-89
2020/12/05 11:17:29;;;;;;;26.65;19.90;;;;;;;;;;5022936;28;20413;-85
2020/12/05 11:19:55;;;;;;;27.30;18.83;;;;;;;;;;5039520;28;20086;-87
2020/12/05 11:22:21;;;;;;;29.38;20.15;;;;;;;;;;5039525;28;20045;-87
2020/12/05 11:24:47;;;;;;;27.65;18.75;;;;;;;;;;5022243;28;20489;-86
2020/12/05 11:27:14;;;;;;;27.60;18.17;;;;;;;;;;5018999;28;20052;-86
2020/12/05 11:29:46;;;;;;;27.90;17.27;;;;;;;;;;5037243;28;20076;-87
2020/12/05 11:32:12;;;;;;;26.65;18.15;;;;;;;;;;5021791;28;20061;-85
2020/12/05 11:34:38;;;;;;;26.58;18.20;;;;;;;;;;5020758;28;20056;-87
2020/12/05 11:37:04;;;;;;;26.70;16.55;;;;;;;;;;5021101;28;20049;-86
2020/12/05 11:39:30;;;;;;;28.10;18.45;;;;;;;;;;5020182;28;20910;-86
2020/12/05 11:41:56;;;;;;;26.23;17.50;;;;;;;;;;5020932;28;20038;-87
2020/12/05 11:44:23;;;;;;;25.42;18.40;;;;;;;;;;5004254;28;20060;-86
2020/12/05 11:46:49;;;;;;;29.67;19.40;;;;;;;;;;5041434;28;20041;-86
2020/12/05 11:49:15;;;;;;;26.77;18.00;;;;;;;;;;5037948;28;20731;-85
2020/12/05 11:51:41;;;;;;;23.75;17.80;;;;;;;;;;5020291;28;20588;-85
2020/12/05 11:54:07;;;;;;;25.70;17.52;;;;;;;;;;5038311;28;20049;-85
2020/12/05 11:56:33;;;;;;;25.70;18.10;;;;;;;;;;5020397;28;20041;-85
2020/12/05 11:59:00;;;;;;;26.65;18.50;;;;;;;;;;5020761;28;20053;-85
2020/12/05 12:01:26;;;;;;;25.65;17.95;;;;;;;;;;5002657;28;20065;-85
2020/12/05 12:03:52;;;;;;;29.10;19.75;;;;;;;;;;5021338;28;20052;-84
2020/12/05 12:06:19;;;;;;;25.48;19.42;;;;;;;;;;5020147;28;20133;-86
2020/12/05 12:08:45;;;;;;;28.80;19.55;;;;;;;;;;5038456;28;20128;-85
2020/12/05 12:11:14;;;;;;;27.08;18.98;;;;;;;;;;5037206;28;20054;-84
2020/12/05 12:13:40;;;;;;;26.40;17.75;;;;;;;;;;5037610;28;20045;-85
2020/12/05 12:16:06;;;;;;;26.27;17.20;;;;;;;;;;5003630;28;20049;-85
2020/12/05 12:18:33;;;;;;;25.35;17.88;;;;;;;;;;5037322;28;20053;-84
2020/12/05 12:20:59;;;;;;;24.10;17.42;;;;;;;;;;5037339;28;20068;-85
2020/12/05 12:23:25;;;;;;;28.05;17.52;;;;;;;;;;5037074;28;20107;-85
2020/12/05 12:25:52;;;;;;;27.50;18.35;;;;;;;;;;5018269;28;20042;-85
2020/12/05 12:28:18;;;;;;;26.92;18.30;;;;;;;;;;5037610;28;20124;-85
2020/12/05 12:30:44;;;;;;;25.95;18.23;;;;;;;;;;5036431;28;20056;-85
2020/12/05 12:33:11;;;;;;;30.98;20.83;;;;;;;;;;5019105;28;20060;-85
2020/12/05 12:35:38;;;;;;;31.02;20.33;;;;;;;;;;5019556;28;20052;-86
2020/12/05 12:38:04;;;;;;;28.77;19.73;;;;;;;;;;5019325;28;20052;-85
2020/12/05 12:40:30;;;;;;;33.25;24.08;;;;;;;;;;5036691;28;20049;-85
2020/12/05 12:42:57;;;;;;;32.03;22.90;;;;;;;;;;5018340;28;20045;-84
2020/12/05 12:45:28;;;;;;;29.33;20.08;;;;;;;;;;5036303;28;20077;-84
2020/12/05 12:48:36;;;;;;;24.98;18.05;;;;;;;;;;5036747;28;20080;-85
2020/12/05 12:50:45;;;;;;;26.33;17.50;;;;;;;;;;5035629;28;20125;-84
2020/12/05 12:53:11;;;;;;;27.45;18.30;;;;;;;;;;5036634;28;20137;-84
2020/12/05 12:55:37;;;;;;;24.83;18.65;;;;;;;;;;5035305;28;20053;-84
2020/12/05 12:58:09;;;;;;;24.65;18.02;;;;;;;;;;5035754;28;20049;-83
2020/12/05 13:00:35;;;;;;;25.38;18.23;;;;;;;;;;5036305;28;20037;-84
2020/12/05 13:03:01;;;;;;;27.45;19.05;;;;;;;;;;5018287;28;20049;-84
2020/12/05 13:05:27;;;;;;;30.33;19.40;;;;;;;;;;4998140;28;20124;-86
2020/12/05 13:07:54;;;;;;;65.97;29.65;;;;;;;;;;4994324;28;20046;-84
2020/12/05 13:10:20;;;;;;;54.38;26.17;;;;;;;;;;5000255;28;20093;-85
2020/12/05 13:12:46;;;;;;;67.40;31.67;;;;;;;;;;5018120;28;20054;-84
2020/12/05 13:15:12;;;;;;;37.05;22.92;;;;;;;;;;5036078;28;20452;-84
2020/12/05 13:17:46;;;;;;;32.13;20.88;;;;;;;;;;5031322;28;20136;-84
2020/12/05 13:20:12;;;;;;;31.83;21.58;;;;;;;;;;5002332;28;20057;-84
2020/12/05 13:22:44;;;;;;;31.27;20.75;;;;;;;;;;5018386;28;20468;-84
2020/12/05 13:25:11;;;;;;;30.75;21.75;;;;;;;;;;5019297;28;20041;-84
2020/12/05 13:27:37;;;;;;;37.70;28.15;;;;;;;;;;5018555;28;20045;-84
2020/12/05 13:30:03;;;;;;;44.38;30.30;;;;;;;;;;5017437;28;20041;-84
2020/12/05 13:32:29;;;;;;;46.20;29.23;;;;;;;;;;5035317;28;20045;-84
2020/12/05 13:34:55;;;;;;;42.83;27.70;;;;;;;;;;5017706;28;20045;-83
2020/12/05 13:37:21;;;;;;;43.03;28.35;;;;;;;;;;5035023;28;20046;-84
2020/12/05 13:39:47;;;;;;;33.63;23.38;;;;;;;;;;5016708;28;20046;-84
2020/12/05 13:42:15;;;;;;;39.97;27.52;;;;;;;;;;5033967;28;20100;-83
2020/12/05 13:44:41;;;;;;;35.00;23.05;;;;;;;;;;5017406;28;20042;-83
2020/12/05 13:47:07;;;;;;;29.70;21.00;;;;;;;;;;5016309;28;20129;-84
2020/12/05 13:49:33;;;;;;;27.23;18.77;;;;;;;;;;5034300;28;20060;-84
2020/12/05 13:52:03;;;;;;;28.35;19.45;;;;;;;;;;5016593;28;20389;-83
2020/12/05 13:54:29;;;;;;;31.90;21.77;;;;;;;;;;5034913;28;20057;-84
2020/12/05 13:56:55;;;;;;;29.60;20.05;;;;;;;;;;5016873;28;20049;-84
2020/12/05 13:59:22;;;;;;;39.80;22.42;;;;;;;;;;5033417;28;20140;-84
2020/12/05 14:01:48;;;;;;;29.13;20.77;;;;;;;;;;5033753;28;20050;-84
2020/12/05 14:04:14;;;;;;;28.63;19.65;;;;;;;;;;5033330;28;20050;-84
2020/12/05 14:06:40;;;;;;;38.05;21.95;;;;;;;;;;5016799;28;20051;-84
2020/12/05 14:09:06;;;;;;;29.48;19.67;;;;;;;;;;5000103;28;20414;-84
2020/12/05 14:11:32;;;;;;;32.75;20.92;;;;;;;;;;5034250;28;20045;-84
2020/12/05 14:13:58;;;;;;;34.58;22.40;;;;;;;;;;5016702;28;20054;-84
2020/12/05 14:16:25;;;;;;;33.97;22.55;;;;;;;;;;4996515;28;20052;-84
2020/12/05 14:18:51;;;;;;;33.33;23.27;;;;;;;;;;5030241;28;20417;-84
2020/12/05 14:21:23;;;;;;;35.88;23.10;;;;;;;;;;5015986;28;20409;-84